Time;durP1;ratioP1;P1;durP2;ratioP2;P2;SDS_P1;SDS_P2;PMS_P1;PMS_P2;Temp;Humidity;BMP_temperature;BMP_pressure;BME280_temperature;BME280_humidity;BME280_pressure;Samples;Min_cycle;Max_cycle;Signal;HPM_P1;HPM_P2
2021/01/09 00:00:07;;;;;;;9.73;7.72;;;;;;;;;;4829490;29;20220;-90
2021/01/09 00:02:34;;;;;;;9.73;7.38;;;;;;;;;;4829702;29;20218;-89
2021/01/09 00:05:01;;;;;;;8.90;7.30;;;;;;;;;;4828566;29;20216;-89
2021/01/09 00:07:30;;;;;;;10.18;8.13;;;;;;;;;;4829473;29;20205;-89
2021/01/09 00:09:57;;;;;;;10.77;8.27;;;;;;;;;;4829782;29;20261;-91
2021/01/09 00:12:25;;;;;;;10.20;8.38;;;;;;;;;;4829013;29;20201;-91
2021/01/09 00:14:52;;;;;;;10.13;8.13;;;;;;;;;;4829243;29;20189;-88
2021/01/09 00:17:19;;;;;;;11.40;8.77;;;;;;;;;;4829299;29;20195;-91
2021/01/09 00:19:46;;;;;;;9.93;7.95;;;;;;;;;;4828795;29;20210;-89
2021/01/09 00:22:13;;;;;;;9.85;8.23;;;;;;;;;;4828979;29;20467;-89
2021/01/09 00:24:40;;;;;;;13.02;8.88;;;;;;;;;;4831527;29;20232;-90
2021/01/09 00:27:11;;;;;;;13.43;10.38;;;;;;;;;;4832332;29;20276;-89
2021/01/09 00:29:40;;;;;;;15.55;9.50;;;;;;;;;;4832587;29;20186;-89
2021/01/09 00:32:07;;;;;;;14.30;10.10;;;;;;;;;;4832563;29;20195;-90
2021/01/09 00:34:34;;;;;;;14.98;10.82;;;;;;;;;;4832366;29;20200;-90
2021/01/09 00:37:01;;;;;;;15.70;11.40;;;;;;;;;;4832370;29;20259;-90
2021/01/09 00:39:28;;;;;;;14.93;11.98;;;;;;;;;;4832831;29;20324;-91
2021/01/09 00:41:58;;;;;;;14.43;10.40;;;;;;;;;;4832098;29;20224;-90
2021/01/09 00:44:25;;;;;;;13.05;10.93;;;;;;;;;;4832503;29;20198;-90
2021/01/09 00:46:55;;;;;;;16.10;10.73;;;;;;;;;;4832390;29;20197;-90
2021/01/09 00:49:22;;;;;;;12.95;11.05;;;;;;;;;;4831726;29;20308;-90
2021/01/09 00:51:49;;;;;;;14.75;10.55;;;;;;;;;;4832058;29;20225;-91
2021/01/09 00:54:16;;;;;;;14.00;10.85;;;;;;;;;;4832324;29;20202;-90
2021/01/09 00:56:43;;;;;;;11.77;9.13;;;;;;;;;;4832218;29;20205;-89
2021/01/09 00:59:10;;;;;;;12.73;9.82;;;;;;;;;;4832104;29;20192;-90
2021/01/09 01:01:37;;;;;;;13.82;10.50;;;;;;;;;;4831308;29;20229;-90
2021/01/09 01:04:05;;;;;;;13.40;9.77;;;;;;;;;;4831986;29;20204;-89
2021/01/09 01:06:32;;;;;;;14.73;11.07;;;;;;;;;;4832077;29;20194;-90
2021/01/09 01:08:59;;;;;;;15.18;10.98;;;;;;;;;;4832315;29;20427;-89
2021/01/09 01:11:28;;;;;;;13.65;10.10;;;;;;;;;;4831700;29;20288;-90
2021/01/09 01:13:56;;;;;;;12.82;10.45;;;;;;;;;;4831566;29;20462;-91
2021/01/09 01:16:24;;;;;;;14.10;10.82;;;;;;;;;;4832295;29;20294;-90
2021/01/09 01:18:51;;;;;;;12.75;9.70;;;;;;;;;;4832099;29;20285;-89
2021/01/09 01:21:19;;;;;;;15.20;10.65;;;;;;;;;;4831552;29;20233;-90
2021/01/09 01:23:46;;;;;;;13.88;9.70;;;;;;;;;;4831700;29;20277;-90
2021/01/09 01:26:13;;;;;;;13.13;10.70;;;;;;;;;;4831822;29;20213;-90
2021/01/09 01:28:41;;;;;;;15.13;12.05;;;;;;;;;;4831159;29;20352;-89
2021/01/09 01:31:09;;;;;;;13.68;10.60;;;;;;;;;;4831590;29;20485;-90
2021/01/09 01:33:39;;;;;;;13.77;10.13;;;;;;;;;;4831540;29;20195;-90
2021/01/09 01:36:09;;;;;;;13.43;10.77;;;;;;;;;;4830664;29;20191;-89
2021/01/09 01:38:37;;;;;;;13.75;9.95;;;;;;;;;;4831473;29;20198;-90
2021/01/09 01:41:05;;;;;;;11.52;9.45;;;;;;;;;;4831374;29;20236;-89
2021/01/09 01:43:32;;;;;;;15.57;10.35;;;;;;;;;;4831115;29;20190;-89
2021/01/09 01:46:02;;;;;;;13.73;10.02;;;;;;;;;;4831245;29;20198;-88
2021/01/09 01:48:29;;;;;;;14.68;11.25;;;;;;;;;;4831294;29;20241;-89
2021/01/09 01:50:57;;;;;;;13.55;10.75;;;;;;;;;;4831275;29;20232;-90
2021/01/09 01:53:24;;;;;;;13.55;11.13;;;;;;;;;;4830950;29;20276;-89
2021/01/09 01:55:52;;;;;;;10.88;9.15;;;;;;;;;;4831243;29;20198;-90
2021/01/09 01:58:19;;;;;;;13.13;10.98;;;;;;;;;;4831647;29;20200;-89
2021/01/09 02:00:47;;;;;;;12.00;9.35;;;;;;;;;;4830595;29;20240;-89
2021/01/09 02:03:15;;;;;;;13.95;9.45;;;;;;;;;;4800387;29;20208;-89
2021/01/09 02:05:48;;;;;;;13.00;9.63;;;;;;;;;;4831004;29;20479;-90
2021/01/09 02:08:17;;;;;;;14.43;8.90;;;;;;;;;;4830730;29;20193;-90
2021/01/09 02:10:47;;;;;;;10.27;8.95;;;;;;;;;;4830924;29;20216;-90
2021/01/09 02:13:22;;;;;;;13.10;9.38;;;;;;;;;;4831056;29;20190;-89
2021/01/09 02:15:50;;;;;;;11.80;9.00;;;;;;;;;;4830774;29;20581;-89
2021/01/09 02:18:18;;;;;;;11.65;9.05;;;;;;;;;;4830847;29;20610;-89
2021/01/09 02:20:47;;;;;;;10.02;8.18;;;;;;;;;;4830607;29;20233;-90
2021/01/09 02:23:15;;;;;;;13.32;8.27;;;;;;;;;;4831445;29;20202;-89
2021/01/09 02:25:41;;;;;;;7.40;6.57;;;;;;;;;;4830478;29;20196;-89
2021/01/09 02:28:08;;;;;;;9.63;7.35;;;;;;;;;;4830453;29;20205;-89
2021/01/09 02:30:38;;;;;;;10.23;8.13;;;;;;;;;;4831003;29;20197;-90
2021/01/09 02:33:09;;;;;;;10.07;7.93;;;;;;;;;;4830546;29;20194;-89
2021/01/09 02:35:39;;;;;;;8.40;7.60;;;;;;;;;;4830538;29;20458;-90
2021/01/09 02:38:07;;;;;;;10.20;8.65;;;;;;;;;;4830524;29;20281;-90
2021/01/09 02:40:41;;;;;;;10.95;8.82;;;;;;;;;;4831060;29;20230;-90
2021/01/09 02:43:11;;;;;;;12.05;8.88;;;;;;;;;;4830240;29;20246;-89
2021/01/09 02:45:38;;;;;;;11.98;9.07;;;;;;;;;;4830510;29;20568;-89
2021/01/09 02:48:07;;;;;;;11.82;8.27;;;;;;;;;;4830426;29;20238;-89
2021/01/09 02:50:34;;;;;;;10.98;9.30;;;;;;;;;;4830169;29;20228;-89
2021/01/09 02:53:01;;;;;;;12.20;8.88;;;;;;;;;;4830687;29;20216;-90
2021/01/09 02:55:28;;;;;;;13.82;9.30;;;;;;;;;;4830346;29;20209;-88
2021/01/09 02:57:56;;;;;;;11.40;8.07;;;;;;;;;;4830283;29;20204;-89
2021/01/09 03:00:23;;;;;;;13.20;8.88;;;;;;;;;;4829955;29;20214;-88
2021/01/09 03:02:50;;;;;;;13.55;8.60;;;;;;;;;;4830155;29;20210;-89
2021/01/09 03:05:17;;;;;;;11.18;7.18;;;;;;;;;;4830142;29;20186;-90
2021/01/09 03:07:44;;;;;;;11.35;8.63;;;;;;;;;;4830147;29;20206;-90
2021/01/09 03:10:11;;;;;;;10.45;9.25;;;;;;;;;;4829811;29;20576;-88
2021/01/09 03:12:38;;;;;;;12.98;8.98;;;;;;;;;;4829763;29;20190;-90
2021/01/09 03:15:08;;;;;;;10.75;8.27;;;;;;;;;;4829957;29;20190;-89
2021/01/09 03:17:35;;;;;;;9.25;7.35;;;;;;;;;;4784339;29;20209;-88
2021/01/09 03:20:02;;;;;;;13.98;9.40;;;;;;;;;;4830019;29;20243;-89
2021/01/09 03:22:29;;;;;;;9.63;7.93;;;;;;;;;;4829903;29;20236;-88
2021/01/09 03:24:56;;;;;;;13.43;8.27;;;;;;;;;;4829571;29;20200;-89
2021/01/09 03:27:23;;;;;;;9.80;7.30;;;;;;;;;;4829654;29;20217;-89
2021/01/09 03:29:50;;;;;;;9.02;7.53;;;;;;;;;;4829833;29;20208;-89
2021/01/09 03:32:18;;;;;;;11.32;6.32;;;;;;;;;;4829784;29;20198;-89
2021/01/09 03:34:44;;;;;;;10.30;6.78;;;;;;;;;;4829756;29;20255;-89
2021/01/09 03:37:11;;;;;;;7.60;6.78;;;;;;;;;;4829753;29;20197;-89
2021/01/09 03:39:38;;;;;;;8.68;6.28;;;;;;;;;;4829419;29;20204;-88
2021/01/09 03:42:06;;;;;;;8.52;6.25;;;;;;;;;;4829068;29;20360;-89
2021/01/09 03:44:32;;;;;;;10.43;6.55;;;;;;;;;;4829640;29;20197;-88
2021/01/09 03:46:59;;;;;;;7.57;6.78;;;;;;;;;;4798256;29;20210;-89
2021/01/09 03:49:27;;;;;;;8.60;6.70;;;;;;;;;;4829579;29;20228;-88
2021/01/09 03:51:54;;;;;;;8.48;6.50;;;;;;;;;;4829585;29;20225;-88
2021/01/09 03:54:21;;;;;;;6.65;6.00;;;;;;;;;;4829049;29;20281;-90
2021/01/09 03:56:48;;;;;;;8.27;5.78;;;;;;;;;;4829553;29;20215;-89
2021/01/09 03:59:15;;;;;;;8.07;5.93;;;;;;;;;;4832803;29;20242;-89
2021/01/09 04:01:42;;;;;;;9.40;7.05;;;;;;;;;;4835362;29;20247;-89
2021/01/09 04:04:10;;;;;;;8.77;6.15;;;;;;;;;;4835796;29;20216;-90
2021/01/09 04:06:38;;;;;;;6.25;5.60;;;;;;;;;;4836041;29;20206;-89
2021/01/09 04:09:05;;;;;;;6.65;5.80;;;;;;;;;;4789738;29;20569;-89
2021/01/09 04:11:32;;;;;;;6.63;5.88;;;;;;;;;;4835282;29;20194;-89
2021/01/09 04:13:59;;;;;;;5.88;5.28;;;;;;;;;;4835581;29;20209;-89
2021/01/09 04:16:26;;;;;;;5.53;4.45;;;;;;;;;;4835031;29;20432;-89
2021/01/09 04:18:53;;;;;;;9.88;5.50;;;;;;;;;;4834544;29;20209;-91
2021/01/09 04:21:20;;;;;;;7.40;5.15;;;;;;;;;;4835739;29;20585;-90
2021/01/09 04:23:48;;;;;;;7.68;4.78;;;;;;;;;;4835327;29;20551;-89
2021/01/09 04:26:15;;;;;;;5.63;4.97;;;;;;;;;;4835174;29;20190;-89
2021/01/09 04:28:43;;;;;;;6.10;5.13;;;;;;;;;;4835394;29;20182;-89
2021/01/09 04:31:13;;;;;;;5.47;4.95;;;;;;;;;;4835238;29;20197;-89
2021/01/09 04:33:40;;;;;;;5.85;4.93;;;;;;;;;;4835088;29;20461;-89
2021/01/09 04:36:07;;;;;;;5.05;4.32;;;;;;;;;;4835184;29;20208;-90
2021/01/09 04:38:34;;;;;;;5.78;5.18;;;;;;;;;;4834859;29;20190;-89
2021/01/09 04:41:02;;;;;;;5.55;4.65;;;;;;;;;;4834784;29;20631;-90
2021/01/09 04:43:29;;;;;;;7.35;4.97;;;;;;;;;;4834817;29;20557;-89
2021/01/09 04:45:57;;;;;;;5.68;4.53;;;;;;;;;;4835065;29;20187;-89
2021/01/09 04:48:25;;;;;;;5.13;4.63;;;;;;;;;;4834859;29;20241;-89
2021/01/09 04:50:52;;;;;;;7.10;4.65;;;;;;;;;;4835069;29;20225;-89
2021/01/09 04:53:20;;;;;;;5.82;5.10;;;;;;;;;;4835103;29;20197;-89
2021/01/09 04:55:47;;;;;;;5.82;5.05;;;;;;;;;;4835408;29;20281;-89
2021/01/09 04:58:15;;;;;;;6.28;4.63;;;;;;;;;;4834675;29;20666;-89
2021/01/09 05:00:42;;;;;;;6.30;5.55;;;;;;;;;;4834877;29;20194;-89
2021/01/09 05:03:09;;;;;;;6.65;5.53;;;;;;;;;;4835173;29;20216;-89
2021/01/09 05:05:36;;;;;;;6.85;5.93;;;;;;;;;;4835077;29;20209;-91
2021/01/09 05:08:03;;;;;;;6.70;5.45;;;;;;;;;;4834809;29;20190;-90
2021/01/09 05:10:36;;;;;;;6.75;5.18;;;;;;;;;;4832758;29;20209;-89
2021/01/09 05:13:05;;;;;;;6.07;5.32;;;;;;;;;;4832171;29;20201;-89
2021/01/09 05:15:38;;;;;;;6.15;5.45;;;;;;;;;;4831768;29;20253;-89
2021/01/09 05:18:05;;;;;;;6.85;6.10;;;;;;;;;;4831993;29;20266;-91
2021/01/09 05:20:32;;;;;;;7.70;6.32;;;;;;;;;;4831606;29;20286;-89
2021/01/09 05:23:01;;;;;;;7.10;5.93;;;;;;;;;;4831653;29;20221;-91
2021/01/09 05:25:29;;;;;;;7.68;5.80;;;;;;;;;;4831775;29;20190;-89
2021/01/09 05:27:58;;;;;;;7.72;6.47;;;;;;;;;;4832025;29;20276;-90
2021/01/09 05:30:25;;;;;;;9.48;6.90;;;;;;;;;;4831606;29;20208;-91
2021/01/09 05:32:53;;;;;;;12.55;5.90;;;;;;;;;;4831884;29;20198;-88
2021/01/09 05:35:20;;;;;;;7.30;5.93;;;;;;;;;;4831497;29;20452;-91
2021/01/09 05:37:51;;;;;;;8.20;6.30;;;;;;;;;;4831507;29;20229;-90
2021/01/09 05:40:19;;;;;;;6.95;5.30;;;;;;;;;;4831948;29;20316;-88
2021/01/09 05:42:46;;;;;;;6.43;5.45;;;;;;;;;;4831336;29;20217;-90
2021/01/09 05:45:14;;;;;;;9.02;6.70;;;;;;;;;;4831401;29;20199;-95
2021/01/09 05:47:41;;;;;;;6.90;5.80;;;;;;;;;;4831617;29;20206;-95
2021/01/09 05:50:10;;;;;;;10.38;6.15;;;;;;;;;;4832243;29;20222;-93
2021/01/09 05:52:40;;;;;;;9.40;6.50;;;;;;;;;;4831380;29;20214;-92
2021/01/09 05:55:08;;;;;;;7.95;6.20;;;;;;;;;;4830929;29;20190;-94
2021/01/09 05:57:36;;;;;;;5.85;5.25;;;;;;;;;;4831787;29;20237;-93
2021/01/09 06:00:07;;;;;;;6.65;5.65;;;;;;;;;;4831612;29;20324;-94
2021/01/09 06:02:59;;;;;;;8.48;5.80;;;;;;;;;;4831340;29;20557;-94
2021/01/09 06:05:46;;;;;;;6.97;6.00;;;;;;;;;;4831087;29;20572;-93
2021/01/09 06:08:19;;;;;;;7.10;6.30;;;;;;;;;;4831688;29;20210;-94
2021/01/09 06:10:48;;;;;;;11.52;7.10;;;;;;;;;;4832053;29;20213;-93
2021/01/09 06:13:15;;;;;;;7.38;6.47;;;;;;;;;;4830880;29;20190;-93
2021/01/09 06:15:43;;;;;;;7.97;6.03;;;;;;;;;;4830963;29;20233;-92
2021/01/09 06:18:11;;;;;;;10.15;7.28;;;;;;;;;;4830863;29;20273;-94
2021/01/09 06:20:39;;;;;;;11.98;6.05;;;;;;;;;;4831022;29;20222;-93
2021/01/09 06:23:06;;;;;;;7.10;6.18;;;;;;;;;;4831172;29;20573;-92
2021/01/09 06:25:34;;;;;;;8.48;6.40;;;;;;;;;;4831507;29;20206;-93
2021/01/09 06:28:05;;;;;;;7.10;5.95;;;;;;;;;;4832001;29;20619;-94
2021/01/09 06:30:34;;;;;;;6.82;5.57;;;;;;;;;;4831246;29;20209;-92
2021/01/09 06:33:04;;;;;;;12.63;7.07;;;;;;;;;;4830721;29;20384;-94
2021/01/09 06:35:33;;;;;;;7.53;6.32;;;;;;;;;;4830646;29;20281;-94
2021/01/09 06:38:02;;;;;;;8.15;6.45;;;;;;;;;;4831233;29;20206;-94
2021/01/09 06:40:29;;;;;;;8.98;6.95;;;;;;;;;;4830695;29;20286;-93
2021/01/09 06:42:57;;;;;;;9.00;7.10;;;;;;;;;;4830257;29;20306;-93
2021/01/09 06:45:24;;;;;;;7.63;6.18;;;;;;;;;;4831261;29;20208;-92
2021/01/09 06:47:59;;;;;;;7.15;6.20;;;;;;;;;;4830713;29;20206;-94
2021/01/09 06:50:36;;;;;;;10.85;7.45;;;;;;;;;;4830717;29;20561;-92
2021/01/09 06:53:05;;;;;;;8.82;6.57;;;;;;;;;;4830518;29;20312;-93
2021/01/09 06:55:55;;;;;;;9.32;6.85;;;;;;;;;;4830754;29;20206;-92
2021/01/09 06:58:27;;;;;;;9.25;7.43;;;;;;;;;;4831287;29;20606;-93
2021/01/09 07:01:09;;;;;;;9.15;6.93;;;;;;;;;;4831614;29;20205;-93
2021/01/09 07:03:45;;;;;;;6.82;5.72;;;;;;;;;;4829831;29;20226;-92
2021/01/09 07:06:13;;;;;;;7.43;6.38;;;;;;;;;;4814373;29;20286;-93
2021/01/09 07:08:43;;;;;;;8.23;7.05;;;;;;;;;;4830536;29;20202;-95
2021/01/09 07:11:12;;;;;;;7.88;6.45;;;;;;;;;;4830552;29;20334;-94
2021/01/09 07:13:39;;;;;;;6.47;5.65;;;;;;;;;;4830735;29;20210;-94
2021/01/09 07:16:09;;;;;;;6.10;5.07;;;;;;;;;;4829776;29;20191;-93
2021/01/09 07:18:41;;;;;;;8.32;5.75;;;;;;;;;;4830387;29;20205;-92
2021/01/09 07:21:14;;;;;;;6.13;5.20;;;;;;;;;;4830039;29;20225;-90
2021/01/09 07:23:48;;;;;;;6.00;4.95;;;;;;;;;;4829622;29;20214;-93
2021/01/09 07:26:15;;;;;;;6.45;4.85;;;;;;;;;;4830308;29;20245;-92
2021/01/09 07:28:43;;;;;;;7.35;5.72;;;;;;;;;;4829907;29;20519;-95
2021/01/09 07:31:11;;;;;;;6.20;5.35;;;;;;;;;;4829688;29;20624;-91
2021/01/09 07:33:38;;;;;;;6.50;4.97;;;;;;;;;;4830059;29;20273;-91
2021/01/09 07:36:07;;;;;;;7.47;6.78;;;;;;;;;;4829826;29;20186;-91
2021/01/09 07:38:34;;;;;;;6.70;6.00;;;;;;;;;;4829767;29;20466;-91
2021/01/09 07:41:02;;;;;;;6.80;5.60;;;;;;;;;;4829546;29;20182;-91
2021/01/09 07:43:39;;;;;;;5.97;5.38;;;;;;;;;;4829566;29;20477;-91
2021/01/09 07:46:25;;;;;;;6.88;5.82;;;;;;;;;;4830079;29;20209;-93
2021/01/09 07:48:53;;;;;;;8.55;6.47;;;;;;;;;;4828951;29;20282;-93
2021/01/09 07:51:44;;;;;;;6.18;5.40;;;;;;;;;;4829903;29;20236;-92
2021/01/09 07:54:12;;;;;;;7.18;6.30;;;;;;;;;;4830259;29;20236;-92
2021/01/09 07:56:40;;;;;;;8.73;6.50;;;;;;;;;;4829512;29;20190;-91
2021/01/09 07:59:07;;;;;;;6.18;5.57;;;;;;;;;;4829716;29;20209;-92
2021/01/09 08:01:42;;;;;;;7.28;5.82;;;;;;;;;;4829757;29;20216;-95
2021/01/09 08:04:12;;;;;;;7.50;5.22;;;;;;;;;;4830061;29;20260;-92
2021/01/09 08:06:39;;;;;;;9.18;6.78;;;;;;;;;;4829246;29;20204;-92
2021/01/09 08:09:09;;;;;;;6.53;5.50;;;;;;;;;;4829789;29;20203;-91
2021/01/09 08:11:42;;;;;;;7.28;5.70;;;;;;;;;;4829522;29;20550;-91
2021/01/09 08:14:09;;;;;;;6.00;5.40;;;;;;;;;;4829315;29;20286;-92
2021/01/09 08:16:36;;;;;;;8.63;6.72;;;;;;;;;;4830330;29;20206;-91
2021/01/09 08:19:16;;;;;;;6.95;5.72;;;;;;;;;;4829175;29;20194;-91
2021/01/09 08:21:45;;;;;;;6.13;5.50;;;;;;;;;;4829351;29;20217;-91
2021/01/09 08:24:21;;;;;;;6.97;5.88;;;;;;;;;;4829277;29;20214;-91
2021/01/09 08:26:52;;;;;;;6.20;5.60;;;;;;;;;;4829243;29;20197;-94
2021/01/09 08:29:20;;;;;;;7.47;6.53;;;;;;;;;;4829636;29;20478;-91
2021/01/09 08:31:49;;;;;;;7.05;5.85;;;;;;;;;;4829296;29;20293;-94
2021/01/09 08:34:16;;;;;;;6.35;5.40;;;;;;;;;;4829189;29;20194;-92
2021/01/09 08:36:43;;;;;;;6.25;5.35;;;;;;;;;;4829832;29;20565;-92
2021/01/09 08:39:10;;;;;;;8.40;6.03;;;;;;;;;;4829765;29;20216;-92
2021/01/09 08:41:38;;;;;;;7.78;6.45;;;;;;;;;;4829593;29;20198;-92
2021/01/09 08:44:08;;;;;;;7.05;5.97;;;;;;;;;;4829682;29;20241;-91
2021/01/09 08:46:36;;;;;;;6.60;5.82;;;;;;;;;;4832181;29;20226;-91
2021/01/09 08:49:25;;;;;;;7.55;5.38;;;;;;;;;;4832312;29;20625;-91
2021/01/09 08:52:01;;;;;;;6.10;5.07;;;;;;;;;;4795445;30;20666;-92
2021/01/09 08:54:30;;;;;;;7.47;5.75;;;;;;;;;;4795781;30;20473;-93
2021/01/09 08:57:01;;;;;;;8.60;5.72;;;;;;;;;;4795741;30;20618;-93
2021/01/09 08:59:30;;;;;;;8.52;6.90;;;;;;;;;;4795939;30;20215;-93
2021/01/09 09:02:00;;;;;;;7.07;6.38;;;;;;;;;;4795589;30;20211;-92
2021/01/09 09:04:28;;;;;;;10.68;8.50;;;;;;;;;;4795763;30;20231;-94
2021/01/09 09:06:59;;;;;;;9.13;6.18;;;;;;;;;;4795192;30;20574;-93
2021/01/09 09:09:30;;;;;;;8.40;6.00;;;;;;;;;;4796201;30;20235;-92
2021/01/09 09:11:57;;;;;;;6.15;5.55;;;;;;;;;;4796541;30;20280;-94
2021/01/09 09:14:25;;;;;;;9.00;6.25;;;;;;;;;;4796499;30;20233;-94
2021/01/09 09:17:00;;;;;;;9.00;7.38;;;;;;;;;;4820473;29;20202;-93
2021/01/09 09:19:27;;;;;;;7.90;6.55;;;;;;;;;;4832524;29;20202;-93
2021/01/09 09:22:02;;;;;;;9.02;6.93;;;;;;;;;;4831924;29;20233;-93
2021/01/09 09:24:40;;;;;;;7.00;5.63;;;;;;;;;;4832136;29;20233;-94
2021/01/09 09:27:21;;;;;;;7.32;6.07;;;;;;;;;;4832322;29;20213;-94
2021/01/09 09:29:48;;;;;;;6.78;5.90;;;;;;;;;;4832422;29;20266;-93
2021/01/09 09:32:26;;;;;;;6.72;5.80;;;;;;;;;;4832472;29;20194;-94
2021/01/09 09:34:54;;;;;;;6.85;5.75;;;;;;;;;;4832652;29;20217;-92
2021/01/09 09:37:21;;;;;;;7.78;6.97;;;;;;;;;;4835013;29;20210;-93
2021/01/09 09:39:51;;;;;;;9.55;5.45;;;;;;;;;;4834695;29;20206;-93
2021/01/09 09:42:26;;;;;;;9.15;5.78;;;;;;;;;;4835210;29;20218;-92
2021/01/09 09:44:53;;;;;;;6.75;6.05;;;;;;;;;;4830978;29;20244;-93
2021/01/09 09:47:28;;;;;;;9.95;6.45;;;;;;;;;;4836942;29;20220;-92
2021/01/09 09:50:00;;;;;;;7.30;6.15;;;;;;;;;;4831553;29;20497;-93
2021/01/09 09:52:27;;;;;;;9.35;6.93;;;;;;;;;;4850381;29;20621;-92
2021/01/09 09:55:01;;;;;;;7.72;6.10;;;;;;;;;;4850190;29;20211;-93
2021/01/09 09:57:28;;;;;;;6.95;5.45;;;;;;;;;;4849083;29;20256;-93
2021/01/09 10:00:11;;;;;;;9.55;7.55;;;;;;;;;;4850154;29;20209;-92
2021/01/09 10:02:52;;;;;;;8.25;5.32;;;;;;;;;;4849860;29;20285;-92
2021/01/09 10:05:20;;;;;;;8.18;5.68;;;;;;;;;;4849735;29;20201;-92
2021/01/09 10:07:47;;;;;;;8.43;5.35;;;;;;;;;;4850071;29;20446;-94
2021/01/09 10:10:15;;;;;;;7.65;6.25;;;;;;;;;;4849669;29;20208;-92
2021/01/09 10:12:53;;;;;;;6.82;5.57;;;;;;;;;;4849637;29;20206;-92
2021/01/09 10:15:20;;;;;;;6.93;6.03;;;;;;;;;;4842004;29;20219;-92
2021/01/09 10:17:52;;;;;;;6.30;5.35;;;;;;;;;;4831103;29;20213;-93
2021/01/09 10:20:19;;;;;;;6.53;5.78;;;;;;;;;;4831227;29;20229;-92
2021/01/09 10:22:46;;;;;;;7.22;5.70;;;;;;;;;;4830977;29;20221;-92
2021/01/09 10:25:13;;;;;;;6.57;5.93;;;;;;;;;;4830885;29;20278;-92
2021/01/09 10:27:40;;;;;;;6.40;5.78;;;;;;;;;;4830891;29;20202;-94
2021/01/09 10:30:09;;;;;;;7.43;5.75;;;;;;;;;;4831139;29;20288;-93
2021/01/09 10:32:36;;;;;;;7.18;5.65;;;;;;;;;;4832107;29;20198;-92
2021/01/09 10:35:06;;;;;;;7.80;6.32;;;;;;;;;;4845300;29;20205;-92
2021/01/09 10:37:33;;;;;;;6.15;5.38;;;;;;;;;;4830736;29;20214;-93
2021/01/09 10:40:00;;;;;;;6.25;5.65;;;;;;;;;;4831188;29;20538;-94
2021/01/09 10:42:29;;;;;;;8.35;6.50;;;;;;;;;;4831142;29;20206;-93
2021/01/09 10:44:56;;;;;;;6.80;5.85;;;;;;;;;;4830189;29;20246;-90
2021/01/09 10:47:23;;;;;;;10.23;7.13;;;;;;;;;;4831076;29;20214;-91
2021/01/09 10:49:50;;;;;;;7.68;6.38;;;;;;;;;;4830059;29;20245;-91
2021/01/09 10:52:19;;;;;;;10.85;7.95;;;;;;;;;;4831106;29;20218;-91
2021/01/09 10:54:46;;;;;;;9.43;7.65;;;;;;;;;;4833509;29;20229;-93
2021/01/09 10:57:13;;;;;;;7.15;6.32;;;;;;;;;;4840014;29;20206;-94
2021/01/09 10:59:41;;;;;;;7.53;6.57;;;;;;;;;;4839750;29;20285;-94
2021/01/09 11:02:08;;;;;;;7.40;6.55;;;;;;;;;;4839089;29;20202;-93
2021/01/09 11:04:35;;;;;;;9.13;6.72;;;;;;;;;;4831686;29;20329;-91
2021/01/09 11:07:02;;;;;;;8.23;6.78;;;;;;;;;;4831490;29;20479;-93
2021/01/09 11:09:30;;;;;;;7.65;6.47;;;;;;;;;;4830267;29;20212;-93
2021/01/09 11:11:57;;;;;;;7.30;6.57;;;;;;;;;;4830979;29;20202;-92
2021/01/09 11:14:24;;;;;;;9.15;6.75;;;;;;;;;;4830410;29;20258;-92
2021/01/09 11:16:55;;;;;;;10.35;7.88;;;;;;;;;;4830261;29;20202;-93
2021/01/09 11:19:22;;;;;;;9.27;7.38;;;;;;;;;;4830015;29;20613;-91
2021/01/09 11:21:49;;;;;;;8.77;6.82;;;;;;;;;;4829995;29;20290;-90
2021/01/09 11:24:16;;;;;;;8.25;6.82;;;;;;;;;;4830029;29;20237;-92
2021/01/09 11:26:44;;;;;;;8.73;7.43;;;;;;;;;;4834402;29;20291;-92
2021/01/09 11:29:11;;;;;;;9.60;7.10;;;;;;;;;;4841078;29;20224;-93
2021/01/09 11:31:38;;;;;;;8.05;6.43;;;;;;;;;;4830228;29;20216;-91
2021/01/09 11:34:05;;;;;;;7.97;6.10;;;;;;;;;;4829571;29;20238;-92
2021/01/09 11:36:32;;;;;;;17.63;7.10;;;;;;;;;;4830441;29;20202;-92
2021/01/09 11:38:59;;;;;;;8.48;7.05;;;;;;;;;;4829612;29;20193;-91
2021/01/09 11:41:26;;;;;;;8.98;6.82;;;;;;;;;;4830433;29;20557;-91
2021/01/09 11:43:54;;;;;;;8.27;6.78;;;;;;;;;;4829424;29;20209;-94
2021/01/09 11:46:27;;;;;;;8.52;6.90;;;;;;;;;;4830041;29;20233;-92
2021/01/09 11:48:54;;;;;;;7.82;6.72;;;;;;;;;;4831410;29;20260;-92
2021/01/09 11:51:25;;;;;;;8.13;6.93;;;;;;;;;;4794896;30;20291;-95
2021/01/09 11:53:52;;;;;;;9.82;7.63;;;;;;;;;;4798096;30;20223;-93
2021/01/09 11:56:20;;;;;;;9.38;6.50;;;;;;;;;;4793394;30;20271;-92
2021/01/09 11:58:47;;;;;;;8.48;6.88;;;;;;;;;;4792516;30;20206;-94
2021/01/09 12:01:15;;;;;;;7.22;6.38;;;;;;;;;;4792000;30;20203;-93
2021/01/09 12:03:42;;;;;;;8.32;6.65;;;;;;;;;;4793979;30;20338;-92
2021/01/09 12:06:10;;;;;;;8.23;7.07;;;;;;;;;;4792195;30;20221;-92
2021/01/09 12:08:37;;;;;;;8.32;7.43;;;;;;;;;;4798637;29;20219;-93
2021/01/09 12:11:04;;;;;;;9.10;7.13;;;;;;;;;;4829491;29;20186;-91
2021/01/09 12:13:32;;;;;;;9.65;7.82;;;;;;;;;;4829847;29;20206;-91
2021/01/09 12:15:59;;;;;;;8.80;6.97;;;;;;;;;;4829967;29;20202;-91
2021/01/09 12:18:26;;;;;;;7.97;7.18;;;;;;;;;;4829297;29;20266;-92
2021/01/09 12:20:53;;;;;;;7.03;6.15;;;;;;;;;;4832047;29;20222;-94
2021/01/09 12:23:20;;;;;;;6.93;6.22;;;;;;;;;;4833224;29;20209;-92
2021/01/09 12:25:48;;;;;;;9.68;7.28;;;;;;;;;;4832718;29;20718;-92
2021/01/09 12:28:15;;;;;;;9.88;6.15;;;;;;;;;;4833503;29;20202;-93
2021/01/09 12:30:42;;;;;;;8.40;7.45;;;;;;;;;;4833221;29;20213;-92
2021/01/09 12:33:09;;;;;;;8.13;6.22;;;;;;;;;;4833242;29;20479;-93
2021/01/09 12:35:37;;;;;;;8.52;7.22;;;;;;;;;;4832583;29;20482;-92
2021/01/09 12:38:04;;;;;;;7.40;6.65;;;;;;;;;;4832569;29;20193;-91
2021/01/09 12:40:32;;;;;;;7.50;6.80;;;;;;;;;;4832625;29;20530;-92
2021/01/09 12:42:59;;;;;;;7.72;7.03;;;;;;;;;;4832908;29;20564;-92
2021/01/09 12:45:26;;;;;;;7.75;6.72;;;;;;;;;;4832194;29;20226;-92
2021/01/09 12:47:53;;;;;;;7.47;6.18;;;;;;;;;;4831912;29;20200;-92
2021/01/09 12:50:20;;;;;;;8.25;6.47;;;;;;;;;;4832527;29;20237;-91
2021/01/09 12:52:48;;;;;;;8.57;7.15;;;;;;;;;;4832021;29;20190;-92
2021/01/09 12:55:15;;;;;;;6.65;5.95;;;;;;;;;;4832617;29;20224;-93
2021/01/09 12:57:42;;;;;;;6.28;5.45;;;;;;;;;;4831989;29;20526;-91
2021/01/09 13:00:10;;;;;;;7.10;6.40;;;;;;;;;;4832116;29;20541;-93
2021/01/09 13:02:39;;;;;;;7.57;6.45;;;;;;;;;;4834186;29;20220;-91
2021/01/09 13:05:07;;;;;;;7.00;5.88;;;;;;;;;;4831962;29;20225;-92
2021/01/09 13:07:34;;;;;;;7.55;6.07;;;;;;;;;;4831793;29;20186;-92
2021/01/09 13:10:03;;;;;;;7.10;6.38;;;;;;;;;;4832153;29;20220;-92
2021/01/09 13:12:30;;;;;;;7.95;6.30;;;;;;;;;;4832849;29;20232;-92
2021/01/09 13:14:57;;;;;;;6.70;5.43;;;;;;;;;;4832537;29;20561;-92
2021/01/09 13:17:24;;;;;;;7.15;6.13;;;;;;;;;;4831764;29;20206;-94
2021/01/09 13:19:51;;;;;;;6.65;6.05;;;;;;;;;;4832123;29;20278;-91
2021/01/09 13:22:18;;;;;;;7.30;6.07;;;;;;;;;;4851037;29;20211;-93
2021/01/09 13:24:47;;;;;;;8.07;6.53;;;;;;;;;;4850106;29;20229;-92
2021/01/09 13:27:15;;;;;;;9.02;7.03;;;;;;;;;;4850036;29;20265;-93
2021/01/09 13:29:42;;;;;;;7.65;6.65;;;;;;;;;;4850334;29;20284;-92
2021/01/09 13:32:09;;;;;;;7.15;5.70;;;;;;;;;;4849395;29;20284;-93
2021/01/09 13:34:37;;;;;;;9.35;8.00;;;;;;;;;;4849915;29;20202;-93
2021/01/09 13:37:05;;;;;;;10.48;8.10;;;;;;;;;;4850173;29;20205;-93
2021/01/09 13:39:32;;;;;;;8.02;7.00;;;;;;;;;;4849627;29;20192;-93
2021/01/09 13:42:00;;;;;;;9.38;7.75;;;;;;;;;;4850492;29;20209;-91
2021/01/09 13:44:28;;;;;;;6.68;5.88;;;;;;;;;;4850767;29;20478;-93
2021/01/09 13:46:55;;;;;;;6.32;5.65;;;;;;;;;;4849509;29;20185;-94
2021/01/09 13:49:22;;;;;;;11.77;9.30;;;;;;;;;;4849405;29;20245;-92
2021/01/09 13:51:49;;;;;;;7.65;6.80;;;;;;;;;;4849534;29;20622;-92
2021/01/09 13:54:16;;;;;;;7.57;6.78;;;;;;;;;;4849595;29;20229;-91
2021/01/09 13:56:45;;;;;;;7.72;6.60;;;;;;;;;;4850116;29;20261;-91
2021/01/09 13:59:14;;;;;;;7.30;6.47;;;;;;;;;;4850485;29;20269;-93
2021/01/09 14:01:42;;;;;;;9.05;6.72;;;;;;;;;;4849359;29;20587;-93
2021/01/09 14:04:10;;;;;;;7.43;6.60;;;;;;;;;;4849705;29;20583;-92
2021/01/09 14:06:37;;;;;;;6.95;6.25;;;;;;;;;;4849383;29;20282;-92
2021/01/09 14:09:06;;;;;;;6.70;6.00;;;;;;;;;;4850094;29;20197;-93
2021/01/09 14:11:34;;;;;;;7.93;6.65;;;;;;;;;;4850105;29;20205;-94
2021/01/09 14:14:01;;;;;;;7.93;5.72;;;;;;;;;;4849665;29;20548;-92
2021/01/09 14:16:33;;;;;;;8.00;7.20;;;;;;;;;;4837161;29;20209;-91
2021/01/09 14:19:22;;;;;;;7.22;6.30;;;;;;;;;;4851862;29;20213;-93
2021/01/09 14:21:50;;;;;;;8.00;7.07;;;;;;;;;;4817124;29;20235;-93
2021/01/09 14:24:18;;;;;;;7.57;6.25;;;;;;;;;;4776760;30;20224;-94
2021/01/09 14:26:45;;;;;;;6.97;6.28;;;;;;;;;;4775597;30;20315;-93
2021/01/09 14:29:12;;;;;;;7.68;6.15;;;;;;;;;;4776905;30;20299;-93
2021/01/09 14:31:39;;;;;;;8.65;6.88;;;;;;;;;;4775976;30;20227;-94
2021/01/09 14:34:12;;;;;;;8.15;5.70;;;;;;;;;;4778346;30;20322;-93
2021/01/09 14:36:40;;;;;;;8.43;6.00;;;;;;;;;;4775895;30;20563;-93
2021/01/09 14:39:07;;;;;;;7.35;6.60;;;;;;;;;;4778433;30;20226;-93
2021/01/09 14:41:34;;;;;;;7.70;6.90;;;;;;;;;;4800994;29;21176;-94
2021/01/09 14:44:02;;;;;;;7.55;6.20;;;;;;;;;;4849083;29;20220;-92
2021/01/09 14:46:29;;;;;;;7.40;6.25;;;;;;;;;;4848993;29;20229;-93